sensor_id;sensor_type;location;lat;lon;timestamp;temperature;humidity
12276;DHT22;6200;48.144;11.424;2024-02-15T00:00:27;8.80;99.90
12276;DHT22;6200;48.144;11.424;2024-02-15T00:02:53;8.70;99.90
12276;DHT22;6200;48.144;11.424;2024-02-15T00:05:19;8.70;99.90
12276;DHT22;6200;48.144;11.424;2024-02-15T00:07:45;8.70;99.90
12276;DHT22;6200;48.144;11.424;2024-02-15T00:10:13;8.70;99.90
12276;DHT22;6200;48.144;11.424;2024-02-15T00:12:39;8.70;99.90
12276;DHT22;6200;48.144;11.424;2024-02-15T00:15:05;8.60;99.90
12276;DHT22;6200;48.144;11.424;2024-02-15T00:17:31;8.70;99.90
12276;DHT22;6200;48.144;11.424;2024-02-15T00:19:57;8.70;99.90
12276;DHT22;6200;48.144;11.424;2024-02-15T00:22:23;8.70;99.90
12276;DHT22;6200;48.144;11.424;2024-02-15T00:24:48;8.60;99.90
12276;DHT22;6200;48.144;11.424;2024-02-15T00:27:17;8.70;99.90
12276;DHT22;6200;48.144;11.424;2024-02-15T00:29:42;8.70;99.90
12276;DHT22;6200;48.144;11.424;2024-02-15T00:32:09;8.60;99.90
12276;DHT22;6200;48.144;11.424;2024-02-15T00:34:36;8.60;99.90
12276;DHT22;6200;48.144;11.424;2024-02-15T00:37:04;8.60;99.90
12276;DHT22;6200;48.144;11.424;2024-02-15T00:39:30;8.60;99.90
12276;DHT22;6200;48.144;11.424;2024-02-15T00:41:57;8.60;99.90
12276;DHT22;6200;48.144;11.424;2024-02-15T00:44:22;8.50;99.90
12276;DHT22;6200;48.144;11.424;2024-02-15T00:46:48;8.60;99.90
12276;DHT22;6200;48.144;11.424;2024-02-15T00:49:13;8.60;99.90
12276;DHT22;6200;48.144;11.424;2024-02-15T00:51:39;8.50;99.90
12276;DHT22;6200;48.144;11.424;2024-02-15T00:54:05;8.60;99.90
12276;DHT22;6200;48.144;11.424;2024-02-15T00:56:31;8.50;99.90
12276;DHT22;6200;48.144;11.424;2024-02-15T00:58:59;8.60;99.90
12276;DHT22;6200;48.144;11.424;2024-02-15T01:01:26;8.60;99.90
12276;DHT22;6200;48.144;11.424;2024-02-15T01:03:52;8.60;99.90
12276;DHT22;6200;48.144;11.424;2024-02-15T01:06:17;8.60;99.90
12276;DHT22;6200;48.144;11.424;2024-02-15T01:08:43;8.60;99.90
12276;DHT22;6200;48.144;11.424;2024-02-15T01:11:09;8.60;99.90
12276;DHT22;6200;48.144;11.424;2024-02-15T01:13:35;8.60;99.90
12276;DHT22;6200;48.144;11.424;2024-02-15T01:16:00;8.60;99.90
12276;DHT22;6200;48.144;11.424;2024-02-15T01:18:28;8.50;99.90
12276;DHT22;6200;48.144;11.424;2024-02-15T01:20:55;8.50;99.90
12276;DHT22;6200;48.144;11.424;2024-02-15T01:23:21;8.50;99.90
12276;DHT22;6200;48.144;11.424;2024-02-15T01:25:48;8.40;99.90
12276;DHT22;6200;48.144;11.424;2024-02-15T01:28:13;8.40;99.90
12276;DHT22;6200;48.144;11.424;2024-02-15T01:30:39;8.40;99.90
12276;DHT22;6200;48.144;11.424;2024-02-15T01:33:04;8.40;99.90
12276;DHT22;6200;48.144;11.424;2024-02-15T01:35:30;8.40;99.90
12276;DHT22;6200;48.144;11.424;2024-02-15T01:37:56;8.40;99.90
12276;DHT22;6200;48.144;11.424;2024-02-15T01:40:21;8.40;99.90
12276;DHT22;6200;48.144;11.424;2024-02-15T01:42:47;8.30;99.90
12276;DHT22;6200;48.144;11.424;2024-02-15T01:45:15;8.20;99.90
12276;DHT22;6200;48.144;11.424;2024-02-15T01:47:41;8.20;99.90
12276;DHT22;6200;48.144;11.424;2024-02-15T01:50:10;8.20;99.90
12276;DHT22;6200;48.144;11.424;2024-02-15T01:52:37;8.20;99.90
12276;DHT22;6200;48.144;11.424;2024-02-15T01:55:03;8.20;99.90
12276;DHT22;6200;48.144;11.424;2024-02-15T01:57:36;8.10;99.90
12276;DHT22;6200;48.144;11.424;2024-02-15T02:00:06;8.20;99.90
12276;DHT22;6200;48.144;11.424;2024-02-15T02:02:34;8.20;99.90
12276;DHT22;6200;48.144;11.424;2024-02-15T02:05:01;8.10;99.90
12276;DHT22;6200;48.144;11.424;2024-02-15T02:07:27;8.20;99.90
12276;DHT22;6200;48.144;11.424;2024-02-15T02:09:53;8.20;99.90
12276;DHT22;6200;48.144;11.424;2024-02-15T02:12:19;8.20;99.90
12276;DHT22;6200;48.144;11.424;2024-02-15T02:14:44;8.20;99.90
12276;DHT22;6200;48.144;11.424;2024-02-15T02:17:13;8.30;99.90
12276;DHT22;6200;48.144;11.424;2024-02-15T02:19:39;8.20;99.90
12276;DHT22;6200;48.144;11.424;2024-02-15T02:22:05;8.20;99.90
12276;DHT22;6200;48.144;11.424;2024-02-15T02:24:33;8.20;99.90
12276;DHT22;6200;48.144;11.424;2024-02-15T02:27:04;8.20;99.90
12276;DHT22;6200;48.144;11.424;2024-02-15T02:29:30;8.20;99.90
12276;DHT22;6200;48.144;11.424;2024-02-15T02:31:57;8.20;99.90
12276;DHT22;6200;48.144;11.424;2024-02-15T02:34:22;8.20;99.90
12276;DHT22;6200;48.144;11.424;2024-02-15T02:36:48;8.20;99.90
12276;DHT22;6200;48.144;11.424;2024-02-15T02:39:15;8.20;99.90
12276;DHT22;6200;48.144;11.424;2024-02-15T02:41:41;8.20;99.90
12276;DHT22;6200;48.144;11.424;2024-02-15T02:44:08;8.20;99.90
12276;DHT22;6200;48.144;11.424;2024-02-15T02:46:33;8.20;99.90
12276;DHT22;6200;48.144;11.424;2024-02-15T02:48:59;8.20;99.90
12276;DHT22;6200;48.144;11.424;2024-02-15T02:51:24;8.20;99.90
12276;DHT22;6200;48.144;11.424;2024-02-15T02:53:50;8.30;99.90
12276;DHT22;6200;48.144;11.424;2024-02-15T02:56:15;8.30;99.90
12276;DHT22;6200;48.144;11.424;2024-02-15T02:58:41;8.30;99.90
12276;DHT22;6200;48.144;11.424;2024-02-15T03:01:08;8.30;99.90
12276;DHT22;6200;48.144;11.424;2024-02-15T03:03:33;8.30;99.90
12276;DHT22;6200;48.144;11.424;2024-02-15T03:05:59;8.30;99.90
12276;DHT22;6200;48.144;11.424;2024-02-15T03:08:24;8.30;99.90
12276;DHT22;6200;48.144;11.424;2024-02-15T03:10:50;8.30;99.90
12276;DHT22;6200;48.144;11.424;2024-02-15T03:13:17;8.30;99.90
12276;DHT22;6200;48.144;11.424;2024-02-15T03:15:45;8.30;99.90
12276;DHT22;6200;48.144;11.424;2024-02-15T03:18:14;8.20;99.90
12276;DHT22;6200;48.144;11.424;2024-02-15T03:20:40;8.20;99.90
12276;DHT22;6200;48.144;11.424;2024-02-15T03:23:06;8.30;99.90
12276;DHT22;6200;48.144;11.424;2024-02-15T03:25:32;8.20;99.90
12276;DHT22;6200;48.144;11.424;2024-02-15T03:28:00;8.20;99.90
12276;DHT22;6200;48.144;11.424;2024-02-15T03:30:30;8.20;99.90
12276;DHT22;6200;48.144;11.424;2024-02-15T03:32:57;8.20;99.90
12276;DHT22;6200;48.144;11.424;2024-02-15T03:35:24;8.20;99.90
12276;DHT22;6200;48.144;11.424;2024-02-15T03:37:50;8.20;99.90
12276;DHT22;6200;48.144;11.424;2024-02-15T03:40:17;8.20;99.90
12276;DHT22;6200;48.144;11.424;2024-02-15T03:42:43;8.20;99.90
12276;DHT22;6200;48.144;11.424;2024-02-15T03:45:09;8.20;99.90
12276;DHT22;6200;48.144;11.424;2024-02-15T03:47:37;8.20;99.90
12276;DHT22;6200;48.144;11.424;2024-02-15T03:52:29;8.10;99.90
12276;DHT22;6200;48.144;11.424;2024-02-15T03:54:56;8.00;99.90
12276;DHT22;6200;48.144;11.424;2024-02-15T03:57:23;8.10;99.90
12276;DHT22;6200;48.144;11.424;2024-02-15T03:59:48;8.10;99.90
12276;DHT22;6200;48.144;11.424;2024-02-15T04:02:19;8.00;99.90
12276;DHT22;6200;48.144;11.424;2024-02-15T04:04:44;8.00;99.90
12276;DHT22;6200;48.144;11.424;2024-02-15T04:07:13;7.90;99.90
12276;DHT22;6200;48.144;11.424;2024-02-15T04:09:40;7.70;99.90
12276;DHT22;6200;48.144;11.424;2024-02-15T04:12:05;7.70;99.90
12276;DHT22;6200;48.144;11.424;2024-02-15T04:14:33;7.70;99.90
12276;DHT22;6200;48.144;11.424;2024-02-15T04:16:59;7.70;99.90
12276;DHT22;6200;48.144;11.424;2024-02-15T04:19:25;7.70;99.90
12276;DHT22;6200;48.144;11.424;2024-02-15T04:21:51;7.50;99.90
12276;DHT22;6200;48.144;11.424;2024-02-15T04:24:16;7.40;99.90
12276;DHT22;6200;48.144;11.424;2024-02-15T04:26:42;7.40;99.90
12276;DHT22;6200;48.144;11.424;2024-02-15T04:29:07;7.40;99.90
12276;DHT22;6200;48.144;11.424;2024-02-15T04:31:34;7.30;99.90
12276;DHT22;6200;48.144;11.424;2024-02-15T04:34:02;7.30;99.90
12276;DHT22;6200;48.144;11.424;2024-02-15T04:36:28;7.40;99.90
12276;DHT22;6200;48.144;11.424;2024-02-15T04:38:59;7.30;99.90
12276;DHT22;6200;48.144;11.424;2024-02-15T04:41:25;7.30;99.90
12276;DHT22;6200;48.144;11.424;2024-02-15T04:43:50;7.10;99.90
12276;DHT22;6200;48.144;11.424;2024-02-15T04:46:16;7.10;99.90
12276;DHT22;6200;48.144;11.424;2024-02-15T04:48:42;7.10;99.90
12276;DHT22;6200;48.144;11.424;2024-02-15T04:51:09;7.10;99.90
12276;DHT22;6200;48.144;11.424;2024-02-15T04:53:36;7.10;99.90
12276;DHT22;6200;48.144;11.424;2024-02-15T04:56:04;7.10;99.90
12276;DHT22;6200;48.144;11.424;2024-02-15T04:58:35;7.10;99.90
12276;DHT22;6200;48.144;11.424;2024-02-15T05:01:02;7.10;99.90
12276;DHT22;6200;48.144;11.424;2024-02-15T05:03:31;7.10;99.90
12276;DHT22;6200;48.144;11.424;2024-02-15T05:06:00;7.10;99.90
12276;DHT22;6200;48.144;11.424;2024-02-15T05:08:25;7.10;99.90
12276;DHT22;6200;48.144;11.424;2024-02-15T05:10:51;7.00;99.90
12276;DHT22;6200;48.144;11.424;2024-02-15T05:13:23;6.90;99.90
12276;DHT22;6200;48.144;11.424;2024-02-15T05:15:49;6.90;99.90
12276;DHT22;6200;48.144;11.424;2024-02-15T05:18:15;6.80;99.90
12276;DHT22;6200;48.144;11.424;2024-02-15T05:20:42;6.80;99.90
12276;DHT22;6200;48.144;11.424;2024-02-15T05:23:08;6.80;99.90
12276;DHT22;6200;48.144;11.424;2024-02-15T05:25:33;6.70;99.90
12276;DHT22;6200;48.144;11.424;2024-02-15T05:28:00;6.70;99.90
12276;DHT22;6200;48.144;11.424;2024-02-15T05:30:26;6.60;99.90
12276;DHT22;6200;48.144;11.424;2024-02-15T05:32:52;6.60;99.90
12276;DHT22;6200;48.144;11.424;2024-02-15T05:35:18;6.50;99.90
12276;DHT22;6200;48.144;11.424;2024-02-15T05:37:44;6.60;99.90
12276;DHT22;6200;48.144;11.424;2024-02-15T05:40:11;6.50;99.90
12276;DHT22;6200;48.144;11.424;2024-02-15T05:42:42;6.50;99.90
12276;DHT22;6200;48.144;11.424;2024-02-15T05:47:54;6.50;99.90
12276;DHT22;6200;48.144;11.424;2024-02-15T05:50:20;6.50;99.90
12276;DHT22;6200;48.144;11.424;2024-02-15T05:52:49;6.50;99.90
12276;DHT22;6200;48.144;11.424;2024-02-15T05:55:18;6.40;99.90
12276;DHT22;6200;48.144;11.424;2024-02-15T05:57:44;6.30;99.90
12276;DHT22;6200;48.144;11.424;2024-02-15T06:00:10;6.30;99.90
12276;DHT22;6200;48.144;11.424;2024-02-15T06:02:36;6.20;99.90
12276;DHT22;6200;48.144;11.424;2024-02-15T06:05:02;6.20;99.90
12276;DHT22;6200;48.144;11.424;2024-02-15T06:07:30;6.30;99.90
12276;DHT22;6200;48.144;11.424;2024-02-15T06:10:00;6.30;99.90
12276;DHT22;6200;48.144;11.424;2024-02-15T06:12:29;6.30;99.90
12276;DHT22;6200;48.144;11.424;2024-02-15T06:14:55;6.30;99.90
12276;DHT22;6200;48.144;11.424;2024-02-15T06:17:20;6.30;99.90
12276;DHT22;6200;48.144;11.424;2024-02-15T06:19:46;6.30;99.90
12276;DHT22;6200;48.144;11.424;2024-02-15T06:22:11;6.30;99.90
12276;DHT22;6200;48.144;11.424;2024-02-15T06:24:38;6.30;99.90
12276;DHT22;6200;48.144;11.424;2024-02-15T06:27:03;6.30;99.90
12276;DHT22;6200;48.144;11.424;2024-02-15T06:29:29;6.30;99.90
12276;DHT22;6200;48.144;11.424;2024-02-15T06:32:13;6.20;99.90
12276;DHT22;6200;48.144;11.424;2024-02-15T06:34:57;6.00;99.90
12276;DHT22;6200;48.144;11.424;2024-02-15T06:37:41;6.00;99.90
12276;DHT22;6200;48.144;11.424;2024-02-15T06:40:25;6.00;99.90
12276;DHT22;6200;48.144;11.424;2024-02-15T06:42:50;6.00;99.90
12276;DHT22;6200;48.144;11.424;2024-02-15T06:45:16;6.00;99.90
12276;DHT22;6200;48.144;11.424;2024-02-15T06:47:43;6.00;99.90
12276;DHT22;6200;48.144;11.424;2024-02-15T06:50:13;5.90;99.90
12276;DHT22;6200;48.144;11.424;2024-02-15T06:52:39;5.90;99.90
12276;DHT22;6200;48.144;11.424;2024-02-15T06:55:09;6.00;99.90
12276;DHT22;6200;48.144;11.424;2024-02-15T06:57:38;6.00;99.90
12276;DHT22;6200;48.144;11.424;2024-02-15T07:00:06;6.00;99.90
12276;DHT22;6200;48.144;11.424;2024-02-15T07:02:35;6.10;99.90
12276;DHT22;6200;48.144;11.424;2024-02-15T07:05:01;6.20;99.90
12276;DHT22;6200;48.144;11.424;2024-02-15T07:07:28;6.20;99.90
12276;DHT22;6200;48.144;11.424;2024-02-15T07:09:54;6.30;99.90
12276;DHT22;6200;48.144;11.424;2024-02-15T07:12:19;6.30;99.90
12276;DHT22;6200;48.144;11.424;2024-02-15T07:14:47;6.30;99.90
12276;DHT22;6200;48.144;11.424;2024-02-15T07:17:13;6.40;99.90
12276;DHT22;6200;48.144;11.424;2024-02-15T07:19:43;6.40;99.90
12276;DHT22;6200;48.144;11.424;2024-02-15T07:22:09;6.50;99.90
12276;DHT22;6200;48.144;11.424;2024-02-15T07:24:35;6.50;99.90
12276;DHT22;6200;48.144;11.424;2024-02-15T07:27:04;6.50;99.90
12276;DHT22;6200;48.144;11.424;2024-02-15T07:29:29;6.60;99.90
12276;DHT22;6200;48.144;11.424;2024-02-15T07:31:57;6.60;99.90
12276;DHT22;6200;48.144;11.424;2024-02-15T07:34:22;6.60;99.90
12276;DHT22;6200;48.144;11.424;2024-02-15T07:36:49;6.60;99.90
12276;DHT22;6200;48.144;11.424;2024-02-15T07:39:15;6.70;99.90
12276;DHT22;6200;48.144;11.424;2024-02-15T07:41:48;6.80;99.90
12276;DHT22;6200;48.144;11.424;2024-02-15T07:44:15;6.90;99.90
12276;DHT22;6200;48.144;11.424;2024-02-15T07:46:41;6.90;99.90
12276;DHT22;6200;48.144;11.424;2024-02-15T07:49:07;7.00;99.90
12276;DHT22;6200;48.144;11.424;2024-02-15T07:51:33;7.10;99.90
12276;DHT22;6200;48.144;11.424;2024-02-15T07:53:59;7.10;99.90
12276;DHT22;6200;48.144;11.424;2024-02-15T07:56:27;7.20;99.90
12276;DHT22;6200;48.144;11.424;2024-02-15T07:58:53;7.30;99.90
12276;DHT22;6200;48.144;11.424;2024-02-15T08:01:19;7.40;99.90
12276;DHT22;6200;48.144;11.424;2024-02-15T08:03:48;7.50;99.90
12276;DHT22;6200;48.144;11.424;2024-02-15T08:06:15;7.60;99.90
12276;DHT22;6200;48.144;11.424;2024-02-15T08:08:45;7.80;99.90
12276;DHT22;6200;48.144;11.424;2024-02-15T08:11:16;7.90;99.90
12276;DHT22;6200;48.144;11.424;2024-02-15T08:13:51;8.10;99.90
12276;DHT22;6200;48.144;11.424;2024-02-15T08:16:22;8.30;99.90
12276;DHT22;6200;48.144;11.424;2024-02-15T08:18:48;8.40;99.90
12276;DHT22;6200;48.144;11.424;2024-02-15T08:21:17;8.60;99.90
12276;DHT22;6200;48.144;11.424;2024-02-15T08:23:43;8.80;99.90
12276;DHT22;6200;48.144;11.424;2024-02-15T08:26:09;9.10;99.90
12276;DHT22;6200;48.144;11.424;2024-02-15T08:28:36;9.30;99.90
12276;DHT22;6200;48.144;11.424;2024-02-15T08:31:02;9.50;99.90
12276;DHT22;6200;48.144;11.424;2024-02-15T08:33:29;9.70;99.90
12276;DHT22;6200;48.144;11.424;2024-02-15T08:35:55;10.00;99.90
12276;DHT22;6200;48.144;11.424;2024-02-15T08:38:24;10.20;99.90
12276;DHT22;6200;48.144;11.424;2024-02-15T08:40:50;10.40;99.90
12276;DHT22;6200;48.144;11.424;2024-02-15T08:43:15;10.60;99.90
12276;DHT22;6200;48.144;11.424;2024-02-15T08:45:42;11.70;99.90
12276;DHT22;6200;48.144;11.424;2024-02-15T08:48:08;12.50;99.90
12276;DHT22;6200;48.144;11.424;2024-02-15T08:50:33;12.60;99.90
12276;DHT22;6200;48.144;11.424;2024-02-15T08:52:59;12.60;99.90
12276;DHT22;6200;48.144;11.424;2024-02-15T08:55:25;12.80;99.90
12276;DHT22;6200;48.144;11.424;2024-02-15T08:57:54;13.10;99.90
12276;DHT22;6200;48.144;11.424;2024-02-15T09:00:20;13.40;99.90
12276;DHT22;6200;48.144;11.424;2024-02-15T09:02:46;13.70;99.90
12276;DHT22;6200;48.144;11.424;2024-02-15T09:05:12;14.10;99.90
12276;DHT22;6200;48.144;11.424;2024-02-15T09:07:43;14.50;99.90
12276;DHT22;6200;48.144;11.424;2024-02-15T09:10:13;14.80;99.90
12276;DHT22;6200;48.144;11.424;2024-02-15T09:12:39;15.80;99.90
12276;DHT22;6200;48.144;11.424;2024-02-15T09:15:07;16.90;99.20
12276;DHT22;6200;48.144;11.424;2024-02-15T09:17:34;18.20;99.30
12276;DHT22;6200;48.144;11.424;2024-02-15T09:20:06;16.60;99.80
12276;DHT22;6200;48.144;11.424;2024-02-15T09:22:32;17.40;98.80
12276;DHT22;6200;48.144;11.424;2024-02-15T09:24:58;19.40;96.00
12276;DHT22;6200;48.144;11.424;2024-02-15T09:27:23;20.20;94.50
12276;DHT22;6200;48.144;11.424;2024-02-15T09:29:49;19.50;93.30
12276;DHT22;6200;48.144;11.424;2024-02-15T09:32:14;18.80;93.90
12276;DHT22;6200;48.144;11.424;2024-02-15T09:34:40;18.50;94.20
12276;DHT22;6200;48.144;11.424;2024-02-15T09:37:07;18.20;95.30
12276;DHT22;6200;48.144;11.424;2024-02-15T09:39:33;17.80;94.80
12276;DHT22;6200;48.144;11.424;2024-02-15T09:41:58;17.60;94.50
12276;DHT22;6200;48.144;11.424;2024-02-15T09:44:25;17.30;95.30
12276;DHT22;6200;48.144;11.424;2024-02-15T09:47:05;17.20;95.30
12276;DHT22;6200;48.144;11.424;2024-02-15T09:49:36;17.20;96.40
12276;DHT22;6200;48.144;11.424;2024-02-15T09:52:08;16.80;97.00
12276;DHT22;6200;48.144;11.424;2024-02-15T09:54:40;16.70;97.10
12276;DHT22;6200;48.144;11.424;2024-02-15T09:57:08;16.80;98.40
12276;DHT22;6200;48.144;11.424;2024-02-15T09:59:34;17.00;97.30
12276;DHT22;6200;48.144;11.424;2024-02-15T10:02:01;17.00;96.80
12276;DHT22;6200;48.144;11.424;2024-02-15T10:04:27;17.00;97.60
12276;DHT22;6200;48.144;11.424;2024-02-15T10:06:53;16.80;96.70
12276;DHT22;6200;48.144;11.424;2024-02-15T10:09:29;16.70;97.70
12276;DHT22;6200;48.144;11.424;2024-02-15T10:11:59;16.90;97.80
12276;DHT22;6200;48.144;11.424;2024-02-15T10:14:26;17.00;98.70
12276;DHT22;6200;48.144;11.424;2024-02-15T10:16:52;17.40;97.70
12276;DHT22;6200;48.144;11.424;2024-02-15T10:19:19;17.70;96.30
12276;DHT22;6200;48.144;11.424;2024-02-15T10:21:54;17.70;95.40
12276;DHT22;6200;48.144;11.424;2024-02-15T10:24:23;17.90;95.50
12276;DHT22;6200;48.144;11.424;2024-02-15T10:27:03;17.90;94.90
12276;DHT22;6200;48.144;11.424;2024-02-15T10:29:30;18.10;94.00
12276;DHT22;6200;48.144;11.424;2024-02-15T10:31:56;18.20;93.70
12276;DHT22;6200;48.144;11.424;2024-02-15T10:34:24;18.10;93.20
12276;DHT22;6200;48.144;11.424;2024-02-15T10:36:53;18.10;93.30
12276;DHT22;6200;48.144;11.424;2024-02-15T10:39:19;18.20;93.00
12276;DHT22;6200;48.144;11.424;2024-02-15T10:41:46;18.20;93.70
12276;DHT22;6200;48.144;11.424;2024-02-15T10:44:17;18.10;93.50
12276;DHT22;6200;48.144;11.424;2024-02-15T10:46:45;18.30;94.50
12276;DHT22;6200;48.144;11.424;2024-02-15T10:49:12;18.40;92.60
12276;DHT22;6200;48.144;11.424;2024-02-15T10:51:42;18.40;92.90
12276;DHT22;6200;48.144;11.424;2024-02-15T10:54:12;18.20;93.10
12276;DHT22;6200;48.144;11.424;2024-02-15T10:56:43;18.40;92.90
12276;DHT22;6200;48.144;11.424;2024-02-15T10:59:18;18.10;91.80
12276;DHT22;6200;48.144;11.424;2024-02-15T11:01:46;18.20;92.10
12276;DHT22;6200;48.144;11.424;2024-02-15T11:04:17;18.50;92.60
12276;DHT22;6200;48.144;11.424;2024-02-15T11:06:47;18.60;92.80
12276;DHT22;6200;48.144;11.424;2024-02-15T11:09:16;18.40;91.80
12276;DHT22;6200;48.144;11.424;2024-02-15T11:11:42;18.30;92.00
12276;DHT22;6200;48.144;11.424;2024-02-15T11:14:31;18.20;92.70
12276;DHT22;6200;48.144;11.424;2024-02-15T11:16:58;18.50;92.40
12276;DHT22;6200;48.144;11.424;2024-02-15T11:22:01;18.90;91.40
12276;DHT22;6200;48.144;11.424;2024-02-15T11:24:32;18.90;90.70
12276;DHT22;6200;48.144;11.424;2024-02-15T11:26:58;18.90;90.80
12276;DHT22;6200;48.144;11.424;2024-02-15T11:32:33;18.70;91.20
12276;DHT22;6200;48.144;11.424;2024-02-15T11:35:06;18.80;90.70
12276;DHT22;6200;48.144;11.424;2024-02-15T11:40:17;18.90;90.80
12276;DHT22;6200;48.144;11.424;2024-02-15T11:42:44;19.10;90.60
12276;DHT22;6200;48.144;11.424;2024-02-15T11:45:11;19.10;89.70
12276;DHT22;6200;48.144;11.424;2024-02-15T11:47:38;19.00;89.40
12276;DHT22;6200;48.144;11.424;2024-02-15T11:50:08;19.00;89.50
12276;DHT22;6200;48.144;11.424;2024-02-15T11:52:40;18.90;88.70
12276;DHT22;6200;48.144;11.424;2024-02-15T11:55:08;18.70;89.00
12276;DHT22;6200;48.144;11.424;2024-02-15T11:57:39;18.40;89.80
12276;DHT22;6200;48.144;11.424;2024-02-15T12:03:04;18.00;90.10
12276;DHT22;6200;48.144;11.424;2024-02-15T12:05:49;17.90;89.60
12276;DHT22;6200;48.144;11.424;2024-02-15T12:08:34;17.70;90.40
12276;DHT22;6200;48.144;11.424;2024-02-15T12:11:18;17.60;90.50
12276;DHT22;6200;48.144;11.424;2024-02-15T12:14:02;17.60;90.30
12276;DHT22;6200;48.144;11.424;2024-02-15T12:16:46;17.50;90.30
12276;DHT22;6200;48.144;11.424;2024-02-15T12:19:30;17.40;91.10
12276;DHT22;6200;48.144;11.424;2024-02-15T12:21:56;17.40;91.50
12276;DHT22;6200;48.144;11.424;2024-02-15T12:24:23;17.30;91.50
12276;DHT22;6200;48.144;11.424;2024-02-15T12:26:59;17.30;91.30
12276;DHT22;6200;48.144;11.424;2024-02-15T12:29:25;17.20;91.10
12276;DHT22;6200;48.144;11.424;2024-02-15T12:31:50;17.20;92.00
12276;DHT22;6200;48.144;11.424;2024-02-15T12:34:20;17.20;92.60
12276;DHT22;6200;48.144;11.424;2024-02-15T12:36:46;17.50;92.60
12276;DHT22;6200;48.144;11.424;2024-02-15T12:39:14;17.70;91.20
12276;DHT22;6200;48.144;11.424;2024-02-15T12:41:49;17.70;90.80
12276;DHT22;6200;48.144;11.424;2024-02-15T12:44:19;18.00;91.40
12276;DHT22;6200;48.144;11.424;2024-02-15T12:46:54;18.00;91.00
12276;DHT22;6200;48.144;11.424;2024-02-15T12:51:51;18.20;90.60
12276;DHT22;6200;48.144;11.424;2024-02-15T12:54:20;18.10;91.30
12276;DHT22;6200;48.144;11.424;2024-02-15T12:56:49;18.20;91.80
12276;DHT22;6200;48.144;11.424;2024-02-15T12:59:17;18.10;90.70
12276;DHT22;6200;48.144;11.424;2024-02-15T13:01:44;18.10;90.80
12276;DHT22;6200;48.144;11.424;2024-02-15T13:04:24;17.90;91.30
12276;DHT22;6200;48.144;11.424;2024-02-15T13:06:53;17.80;91.40
12276;DHT22;6200;48.144;11.424;2024-02-15T13:09:19;17.70;91.00
12276;DHT22;6200;48.144;11.424;2024-02-15T13:11:44;17.80;91.50
12276;DHT22;6200;48.144;11.424;2024-02-15T13:14:12;17.90;91.30
12276;DHT22;6200;48.144;11.424;2024-02-15T13:16:38;17.80;91.10
12276;DHT22;6200;48.144;11.424;2024-02-15T13:19:04;17.70;91.00
12276;DHT22;6200;48.144;11.424;2024-02-15T13:21:32;17.50;91.50
12276;DHT22;6200;48.144;11.424;2024-02-15T13:23:59;17.60;92.20
12276;DHT22;6200;48.144;11.424;2024-02-15T13:26:25;17.60;91.30
12276;DHT22;6200;48.144;11.424;2024-02-15T13:28:52;17.50;91.80
12276;DHT22;6200;48.144;11.424;2024-02-15T13:31:17;17.60;91.80
12276;DHT22;6200;48.144;11.424;2024-02-15T13:33:43;17.60;91.40
12276;DHT22;6200;48.144;11.424;2024-02-15T13:36:08;17.60;90.90
12276;DHT22;6200;48.144;11.424;2024-02-15T13:38:37;17.60;91.80
12276;DHT22;6200;48.144;11.424;2024-02-15T13:41:03;17.60;91.30
12276;DHT22;6200;48.144;11.424;2024-02-15T13:43:29;17.60;91.30
12276;DHT22;6200;48.144;11.424;2024-02-15T13:45:57;17.60;90.80
12276;DHT22;6200;48.144;11.424;2024-02-15T13:48:23;17.50;90.90
12276;DHT22;6200;48.144;11.424;2024-02-15T13:50:52;17.40;90.60
12276;DHT22;6200;48.144;11.424;2024-02-15T13:53:18;17.40;91.10
12276;DHT22;6200;48.144;11.424;2024-02-15T13:55:44;17.30;90.70
12276;DHT22;6200;48.144;11.424;2024-02-15T13:58:10;17.30;92.20
12276;DHT22;6200;48.144;11.424;2024-02-15T14:00:37;17.30;91.50
12276;DHT22;6200;48.144;11.424;2024-02-15T14:03:05;17.40;91.50
12276;DHT22;6200;48.144;11.424;2024-02-15T14:05:31;17.40;91.30
12276;DHT22;6200;48.144;11.424;2024-02-15T14:07:59;17.40;91.60
12276;DHT22;6200;48.144;11.424;2024-02-15T14:10:27;17.40;92.40
12276;DHT22;6200;48.144;11.424;2024-02-15T14:12:54;17.30;91.70
12276;DHT22;6200;48.144;11.424;2024-02-15T14:15:29;17.40;91.50
12276;DHT22;6200;48.144;11.424;2024-02-15T14:17:55;17.40;91.30
12276;DHT22;6200;48.144;11.424;2024-02-15T14:20:21;17.50;91.60
12276;DHT22;6200;48.144;11.424;2024-02-15T14:22:48;17.50;92.00
12276;DHT22;6200;48.144;11.424;2024-02-15T14:25:15;17.40;90.60
12276;DHT22;6200;48.144;11.424;2024-02-15T14:27:41;17.40;91.60
12276;DHT22;6200;48.144;11.424;2024-02-15T14:30:08;17.40;91.10
12276;DHT22;6200;48.144;11.424;2024-02-15T14:32:52;17.40;91.20
12276;DHT22;6200;48.144;11.424;2024-02-15T14:35:34;17.30;90.60
12276;DHT22;6200;48.144;11.424;2024-02-15T14:38:07;17.20;91.00
12276;DHT22;6200;48.144;11.424;2024-02-15T14:40:39;17.20;91.50
12276;DHT22;6200;48.144;11.424;2024-02-15T14:43:06;17.20;91.50
12276;DHT22;6200;48.144;11.424;2024-02-15T14:45:33;17.20;91.30
12276;DHT22;6200;48.144;11.424;2024-02-15T14:48:00;17.20;91.50
12276;DHT22;6200;48.144;11.424;2024-02-15T14:50:26;17.20;91.50
12276;DHT22;6200;48.144;11.424;2024-02-15T14:52:52;17.20;90.80
12276;DHT22;6200;48.144;11.424;2024-02-15T14:55:19;17.20;90.60
12276;DHT22;6200;48.144;11.424;2024-02-15T14:57:46;16.90;91.00
12276;DHT22;6200;48.144;11.424;2024-02-15T15:00:12;16.80;90.90
12276;DHT22;6200;48.144;11.424;2024-02-15T15:02:40;16.70;91.10
12276;DHT22;6200;48.144;11.424;2024-02-15T15:05:07;16.70;92.60
12276;DHT22;6200;48.144;11.424;2024-02-15T15:07:52;16.60;92.40
12276;DHT22;6200;48.144;11.424;2024-02-15T15:10:36;16.50;92.10
12276;DHT22;6200;48.144;11.424;2024-02-15T15:13:20;16.50;93.20
12276;DHT22;6200;48.144;11.424;2024-02-15T15:15:46;16.40;94.10
12276;DHT22;6200;48.144;11.424;2024-02-15T15:18:13;16.40;93.10
12276;DHT22;6200;48.144;11.424;2024-02-15T15:20:39;16.40;94.40
12276;DHT22;6200;48.144;11.424;2024-02-15T15:23:05;16.30;93.50
12276;DHT22;6200;48.144;11.424;2024-02-15T15:25:35;16.30;93.60
12276;DHT22;6200;48.144;11.424;2024-02-15T15:28:03;16.30;93.80
12276;DHT22;6200;48.144;11.424;2024-02-15T15:30:29;16.20;94.30
12276;DHT22;6200;48.144;11.424;2024-02-15T15:32:55;16.10;93.10
12276;DHT22;6200;48.144;11.424;2024-02-15T15:35:22;16.10;93.30
12276;DHT22;6200;48.144;11.424;2024-02-15T15:37:52;16.00;93.70
12276;DHT22;6200;48.144;11.424;2024-02-15T15:40:18;16.00;94.20
12276;DHT22;6200;48.144;11.424;2024-02-15T15:42:44;15.90;93.40
12276;DHT22;6200;48.144;11.424;2024-02-15T15:45:09;15.90;94.20
12276;DHT22;6200;48.144;11.424;2024-02-15T15:47:36;15.80;94.60
12276;DHT22;6200;48.144;11.424;2024-02-15T15:50:02;15.80;94.60
12276;DHT22;6200;48.144;11.424;2024-02-15T15:52:32;15.70;94.50
12276;DHT22;6200;48.144;11.424;2024-02-15T15:54:57;15.70;94.60
12276;DHT22;6200;48.144;11.424;2024-02-15T15:57:23;15.60;95.30
12276;DHT22;6200;48.144;11.424;2024-02-15T15:59:50;15.60;95.20
12276;DHT22;6200;48.144;11.424;2024-02-15T16:02:16;15.50;95.10